sensor_id;sensor_type;location;lat;lon;timestamp;P1;durP1;ratioP1;P2;durP2;ratioP2
8986;SDS011;4529;51.360;12.474;2023-12-20T00:00:04;3.90;;;3.50;;
8986;SDS011;4529;51.360;12.474;2023-12-20T00:05:11;3.53;;;3.00;;
8986;SDS011;4529;51.360;12.474;2023-12-20T00:10:14;4.33;;;3.43;;
8986;SDS011;4529;51.360;12.474;2023-12-20T00:15:18;3.60;;;3.17;;
8986;SDS011;4529;51.360;12.474;2023-12-20T00:20:21;3.73;;;3.33;;
8986;SDS011;4529;51.360;12.474;2023-12-20T00:25:25;3.20;;;2.90;;
8986;SDS011;4529;51.360;12.474;2023-12-20T00:30:28;3.17;;;2.87;;
8986;SDS011;4529;51.360;12.474;2023-12-20T00:35:32;3.00;;;2.80;;
8986;SDS011;4529;51.360;12.474;2023-12-20T00:40:36;2.70;;;2.50;;
8986;SDS011;4529;51.360;12.474;2023-12-20T00:45:40;3.20;;;2.60;;
8986;SDS011;4529;51.360;12.474;2023-12-20T00:50:44;2.50;;;2.30;;
8986;SDS011;4529;51.360;12.474;2023-12-20T00:55:48;2.63;;;2.43;;
8986;SDS011;4529;51.360;12.474;2023-12-20T01:00:51;2.73;;;2.30;;
8986;SDS011;4529;51.360;12.474;2023-12-20T01:05:58;2.30;;;2.10;;
8986;SDS011;4529;51.360;12.474;2023-12-20T01:11:03;2.17;;;1.97;;
8986;SDS011;4529;51.360;12.474;2023-12-20T01:16:12;2.20;;;2.10;;
8986;SDS011;4529;51.360;12.474;2023-12-20T01:21:14;3.50;;;2.20;;
8986;SDS011;4529;51.360;12.474;2023-12-20T01:26:18;2.87;;;2.20;;
8986;SDS011;4529;51.360;12.474;2023-12-20T01:31:21;2.40;;;2.20;;
8986;SDS011;4529;51.360;12.474;2023-12-20T01:36:25;1.80;;;1.70;;
8986;SDS011;4529;51.360;12.474;2023-12-20T01:41:30;1.80;;;1.70;;
8986;SDS011;4529;51.360;12.474;2023-12-20T01:46:33;2.20;;;2.10;;
8986;SDS011;4529;51.360;12.474;2023-12-20T01:51:37;2.00;;;1.80;;
8986;SDS011;4529;51.360;12.474;2023-12-20T01:56:42;2.00;;;1.90;;
8986;SDS011;4529;51.360;12.474;2023-12-20T02:01:45;2.03;;;1.93;;
8986;SDS011;4529;51.360;12.474;2023-12-20T02:06:48;1.90;;;1.77;;
8986;SDS011;4529;51.360;12.474;2023-12-20T02:11:52;1.70;;;1.60;;
8986;SDS011;4529;51.360;12.474;2023-12-20T02:16:55;1.90;;;1.80;;
8986;SDS011;4529;51.360;12.474;2023-12-20T02:22:11;1.80;;;1.70;;
8986;SDS011;4529;51.360;12.474;2023-12-20T02:27:14;1.80;;;1.70;;
8986;SDS011;4529;51.360;12.474;2023-12-20T02:32:18;1.73;;;1.63;;
8986;SDS011;4529;51.360;12.474;2023-12-20T02:37:32;2.10;;;1.87;;
8986;SDS011;4529;51.360;12.474;2023-12-20T02:42:34;1.77;;;1.67;;
8986;SDS011;4529;51.360;12.474;2023-12-20T02:47:39;1.60;;;1.50;;
8986;SDS011;4529;51.360;12.474;2023-12-20T02:52:44;1.70;;;1.60;;
8986;SDS011;4529;51.360;12.474;2023-12-20T02:57:49;1.70;;;1.60;;
8986;SDS011;4529;51.360;12.474;2023-12-20T03:02:52;2.00;;;1.80;;
8986;SDS011;4529;51.360;12.474;2023-12-20T03:07:56;1.90;;;1.80;;
8986;SDS011;4529;51.360;12.474;2023-12-20T03:13:00;1.80;;;1.70;;
8986;SDS011;4529;51.360;12.474;2023-12-20T03:18:04;1.70;;;1.60;;
8986;SDS011;4529;51.360;12.474;2023-12-20T03:23:08;1.63;;;1.53;;
8986;SDS011;4529;51.360;12.474;2023-12-20T03:28:14;1.90;;;1.80;;
8986;SDS011;4529;51.360;12.474;2023-12-20T03:33:15;2.20;;;1.70;;
8986;SDS011;4529;51.360;12.474;2023-12-20T03:38:19;1.70;;;1.60;;
8986;SDS011;4529;51.360;12.474;2023-12-20T03:43:22;1.60;;;1.50;;
8986;SDS011;4529;51.360;12.474;2023-12-20T03:48:25;1.83;;;1.73;;
8986;SDS011;4529;51.360;12.474;2023-12-20T03:53:30;1.90;;;1.80;;
8986;SDS011;4529;51.360;12.474;2023-12-20T03:58:34;1.70;;;1.60;;
8986;SDS011;4529;51.360;12.474;2023-12-20T04:03:39;1.90;;;1.80;;
8986;SDS011;4529;51.360;12.474;2023-12-20T04:08:42;2.00;;;1.90;;
8986;SDS011;4529;51.360;12.474;2023-12-20T04:13:46;2.03;;;1.93;;
8986;SDS011;4529;51.360;12.474;2023-12-20T04:18:50;2.10;;;2.00;;
8986;SDS011;4529;51.360;12.474;2023-12-20T04:23:54;2.20;;;2.07;;
8986;SDS011;4529;51.360;12.474;2023-12-20T04:28:57;2.40;;;2.20;;
8986;SDS011;4529;51.360;12.474;2023-12-20T04:34:01;2.40;;;2.20;;
8986;SDS011;4529;51.360;12.474;2023-12-20T04:39:04;2.30;;;2.10;;
8986;SDS011;4529;51.360;12.474;2023-12-20T04:44:08;2.60;;;2.40;;
8986;SDS011;4529;51.360;12.474;2023-12-20T04:49:12;2.67;;;2.47;;
8986;SDS011;4529;51.360;12.474;2023-12-20T04:54:16;2.73;;;2.53;;
8986;SDS011;4529;51.360;12.474;2023-12-20T04:59:20;3.33;;;2.67;;
8986;SDS011;4529;51.360;12.474;2023-12-20T05:04:24;3.03;;;2.83;;
8986;SDS011;4529;51.360;12.474;2023-12-20T05:09:28;3.00;;;2.80;;
8986;SDS011;4529;51.360;12.474;2023-12-20T05:14:32;3.63;;;3.30;;
8986;SDS011;4529;51.360;12.474;2023-12-20T05:19:35;3.77;;;3.47;;
8986;SDS011;4529;51.360;12.474;2023-12-20T05:24:39;3.60;;;3.30;;
8986;SDS011;4529;51.360;12.474;2023-12-20T05:29:44;3.77;;;3.40;;
8986;SDS011;4529;51.360;12.474;2023-12-20T05:34:48;3.47;;;3.17;;
8986;SDS011;4529;51.360;12.474;2023-12-20T05:39:52;3.80;;;3.13;;
8986;SDS011;4529;51.360;12.474;2023-12-20T05:44:56;2.70;;;2.50;;
8986;SDS011;4529;51.360;12.474;2023-12-20T05:49:59;2.63;;;2.43;;
8986;SDS011;4529;51.360;12.474;2023-12-20T05:55:03;3.13;;;2.83;;
8986;SDS011;4529;51.360;12.474;2023-12-20T06:00:07;2.60;;;2.40;;
8986;SDS011;4529;51.360;12.474;2023-12-20T06:05:10;2.70;;;2.50;;
8986;SDS011;4529;51.360;12.474;2023-12-20T06:10:14;2.87;;;2.67;;
8986;SDS011;4529;51.360;12.474;2023-12-20T06:15:17;2.93;;;2.70;;
8986;SDS011;4529;51.360;12.474;2023-12-20T06:20:20;3.20;;;2.93;;
8986;SDS011;4529;51.360;12.474;2023-12-20T06:25:25;2.83;;;2.63;;
8986;SDS011;4529;51.360;12.474;2023-12-20T06:30:29;3.73;;;3.30;;
8986;SDS011;4529;51.360;12.474;2023-12-20T06:35:33;3.90;;;3.50;;
8986;SDS011;4529;51.360;12.474;2023-12-20T06:40:37;4.23;;;3.83;;
8986;SDS011;4529;51.360;12.474;2023-12-20T06:45:41;5.17;;;3.57;;
8986;SDS011;4529;51.360;12.474;2023-12-20T06:50:45;2.67;;;2.47;;
8986;SDS011;4529;51.360;12.474;2023-12-20T06:55:49;3.27;;;2.70;;
8986;SDS011;4529;51.360;12.474;2023-12-20T07:00:52;2.30;;;2.20;;
8986;SDS011;4529;51.360;12.474;2023-12-20T07:05:56;2.60;;;2.40;;
8986;SDS011;4529;51.360;12.474;2023-12-20T07:10:59;2.30;;;2.10;;
8986;SDS011;4529;51.360;12.474;2023-12-20T07:16:03;2.10;;;1.90;;
8986;SDS011;4529;51.360;12.474;2023-12-20T07:21:06;3.53;;;2.40;;
8986;SDS011;4529;51.360;12.474;2023-12-20T07:26:10;1.97;;;1.87;;
8986;SDS011;4529;51.360;12.474;2023-12-20T07:31:17;2.30;;;2.00;;
8986;SDS011;4529;51.360;12.474;2023-12-20T07:36:21;3.03;;;1.90;;
8986;SDS011;4529;51.360;12.474;2023-12-20T07:41:25;3.37;;;1.80;;
8986;SDS011;4529;51.360;12.474;2023-12-20T07:46:29;1.77;;;1.63;;
8986;SDS011;4529;51.360;12.474;2023-12-20T07:51:33;5.20;;;1.83;;
8986;SDS011;4529;51.360;12.474;2023-12-20T07:56:38;1.93;;;1.50;;
8986;SDS011;4529;51.360;12.474;2023-12-20T08:01:41;1.60;;;1.50;;
8986;SDS011;4529;51.360;12.474;2023-12-20T08:06:45;2.10;;;1.53;;
8986;SDS011;4529;51.360;12.474;2023-12-20T08:11:49;1.60;;;1.50;;
8986;SDS011;4529;51.360;12.474;2023-12-20T08:16:53;4.57;;;1.40;;
8986;SDS011;4529;51.360;12.474;2023-12-20T08:21:57;1.30;;;1.20;;
8986;SDS011;4529;51.360;12.474;2023-12-20T08:27:00;2.23;;;1.20;;
8986;SDS011;4529;51.360;12.474;2023-12-20T08:32:04;1.40;;;1.13;;
8986;SDS011;4529;51.360;12.474;2023-12-20T08:37:07;2.37;;;1.20;;
8986;SDS011;4529;51.360;12.474;2023-12-20T08:42:12;1.40;;;1.30;;
8986;SDS011;4529;51.360;12.474;2023-12-20T08:47:16;1.50;;;1.30;;
8986;SDS011;4529;51.360;12.474;2023-12-20T08:52:20;2.30;;;1.00;;
8986;SDS011;4529;51.360;12.474;2023-12-20T08:57:24;2.07;;;1.03;;
8986;SDS011;4529;51.360;12.474;2023-12-20T09:02:28;2.43;;;1.50;;
8986;SDS011;4529;51.360;12.474;2023-12-20T09:07:32;2.80;;;1.50;;
8986;SDS011;4529;51.360;12.474;2023-12-20T09:12:36;1.67;;;1.20;;
8986;SDS011;4529;51.360;12.474;2023-12-20T09:17:40;1.73;;;1.30;;
8986;SDS011;4529;51.360;12.474;2023-12-20T09:22:43;1.30;;;1.20;;
8986;SDS011;4529;51.360;12.474;2023-12-20T09:27:47;1.30;;;1.10;;
8986;SDS011;4529;51.360;12.474;2023-12-20T09:32:51;2.30;;;1.60;;
8986;SDS011;4529;51.360;12.474;2023-12-20T09:37:54;2.10;;;1.80;;
8986;SDS011;4529;51.360;12.474;2023-12-20T09:42:58;2.07;;;1.80;;
8986;SDS011;4529;51.360;12.474;2023-12-20T09:48:07;2.30;;;1.80;;
8986;SDS011;4529;51.360;12.474;2023-12-20T09:53:13;4.57;;;1.87;;
8986;SDS011;4529;51.360;12.474;2023-12-20T09:58:16;2.20;;;1.80;;
8986;SDS011;4529;51.360;12.474;2023-12-20T10:03:23;4.07;;;2.20;;
8986;SDS011;4529;51.360;12.474;2023-12-20T10:08:26;2.77;;;2.20;;
8986;SDS011;4529;51.360;12.474;2023-12-20T10:13:29;3.20;;;2.10;;
8986;SDS011;4529;51.360;12.474;2023-12-20T10:18:33;3.87;;;2.00;;
8986;SDS011;4529;51.360;12.474;2023-12-20T10:23:37;1.80;;;1.70;;
8986;SDS011;4529;51.360;12.474;2023-12-20T10:28:42;4.10;;;2.07;;
8986;SDS011;4529;51.360;12.474;2023-12-20T10:33:49;3.47;;;1.90;;
8986;SDS011;4529;51.360;12.474;2023-12-20T10:38:53;2.93;;;1.93;;
8986;SDS011;4529;51.360;12.474;2023-12-20T10:44:01;2.23;;;1.90;;
8986;SDS011;4529;51.360;12.474;2023-12-20T10:49:04;2.30;;;1.60;;
8986;SDS011;4529;51.360;12.474;2023-12-20T10:54:08;2.90;;;1.97;;
8986;SDS011;4529;51.360;12.474;2023-12-20T10:59:12;2.03;;;1.73;;
8986;SDS011;4529;51.360;12.474;2023-12-20T11:04:28;1.90;;;1.67;;
8986;SDS011;4529;51.360;12.474;2023-12-20T11:09:43;3.53;;;2.00;;
8986;SDS011;4529;51.360;12.474;2023-12-20T11:15:10;4.40;;;1.93;;
8986;SDS011;4529;51.360;12.474;2023-12-20T11:25:02;3.93;;;1.90;;
8986;SDS011;4529;51.360;12.474;2023-12-20T11:30:10;2.90;;;1.50;;
8986;SDS011;4529;51.360;12.474;2023-12-20T11:40:19;4.23;;;1.67;;
8986;SDS011;4529;51.360;12.474;2023-12-20T11:45:23;3.30;;;1.80;;
8986;SDS011;4529;51.360;12.474;2023-12-20T11:50:25;5.83;;;1.83;;
8986;SDS011;4529;51.360;12.474;2023-12-20T11:55:30;2.40;;;1.70;;
8986;SDS011;4529;51.360;12.474;2023-12-20T12:00:34;3.30;;;1.80;;
8986;SDS011;4529;51.360;12.474;2023-12-20T12:05:38;4.97;;;1.73;;
8986;SDS011;4529;51.360;12.474;2023-12-20T12:10:41;2.63;;;1.60;;
8986;SDS011;4529;51.360;12.474;2023-12-20T12:15:45;4.63;;;1.90;;
8986;SDS011;4529;51.360;12.474;2023-12-20T12:20:48;2.93;;;1.70;;
8986;SDS011;4529;51.360;12.474;2023-12-20T12:25:52;4.53;;;1.80;;
8986;SDS011;4529;51.360;12.474;2023-12-20T12:30:58;3.90;;;1.80;;
8986;SDS011;4529;51.360;12.474;2023-12-20T12:36:01;3.60;;;2.03;;
8986;SDS011;4529;51.360;12.474;2023-12-20T12:41:06;4.07;;;1.70;;
8986;SDS011;4529;51.360;12.474;2023-12-20T12:46:09;4.23;;;1.80;;
8986;SDS011;4529;51.360;12.474;2023-12-20T12:51:13;3.10;;;1.90;;
8986;SDS011;4529;51.360;12.474;2023-12-20T12:56:17;2.37;;;1.80;;
8986;SDS011;4529;51.360;12.474;2023-12-20T13:01:21;3.33;;;1.90;;
8986;SDS011;4529;51.360;12.474;2023-12-20T13:06:25;2.43;;;1.63;;
8986;SDS011;4529;51.360;12.474;2023-12-20T13:11:29;3.67;;;1.70;;
8986;SDS011;4529;51.360;12.474;2023-12-20T13:16:32;3.20;;;1.80;;
8986;SDS011;4529;51.360;12.474;2023-12-20T13:21:36;2.53;;;1.77;;
8986;SDS011;4529;51.360;12.474;2023-12-20T13:26:39;3.33;;;1.80;;
8986;SDS011;4529;51.360;12.474;2023-12-20T13:31:43;4.47;;;1.90;;
8986;SDS011;4529;51.360;12.474;2023-12-20T13:36:47;2.53;;;1.70;;
8986;SDS011;4529;51.360;12.474;2023-12-20T13:41:51;3.93;;;1.60;;
8986;SDS011;4529;51.360;12.474;2023-12-20T13:46:56;2.87;;;1.63;;
8986;SDS011;4529;51.360;12.474;2023-12-20T13:52:00;1.87;;;1.47;;
8986;SDS011;4529;51.360;12.474;2023-12-20T13:57:03;3.50;;;1.60;;
8986;SDS011;4529;51.360;12.474;2023-12-20T14:02:07;2.23;;;1.63;;
8986;SDS011;4529;51.360;12.474;2023-12-20T14:07:11;1.60;;;1.50;;
8986;SDS011;4529;51.360;12.474;2023-12-20T14:12:15;2.57;;;1.60;;
8986;SDS011;4529;51.360;12.474;2023-12-20T14:17:19;2.10;;;1.30;;
8986;SDS011;4529;51.360;12.474;2023-12-20T14:22:22;3.40;;;1.90;;
8986;SDS011;4529;51.360;12.474;2023-12-20T14:27:26;2.03;;;1.60;;
8986;SDS011;4529;51.360;12.474;2023-12-20T14:32:30;2.07;;;1.40;;
8986;SDS011;4529;51.360;12.474;2023-12-20T14:37:34;3.07;;;1.60;;
8986;SDS011;4529;51.360;12.474;2023-12-20T14:42:38;1.53;;;1.40;;
8986;SDS011;4529;51.360;12.474;2023-12-20T14:47:42;2.10;;;1.50;;
8986;SDS011;4529;51.360;12.474;2023-12-20T14:52:45;1.47;;;1.37;;
8986;SDS011;4529;51.360;12.474;2023-12-20T14:57:49;3.07;;;1.53;;
8986;SDS011;4529;51.360;12.474;2023-12-20T15:02:52;2.13;;;1.37;;
8986;SDS011;4529;51.360;12.474;2023-12-20T15:07:56;1.70;;;1.60;;
8986;SDS011;4529;51.360;12.474;2023-12-20T15:13:00;2.23;;;1.37;;
8986;SDS011;4529;51.360;12.474;2023-12-20T15:18:03;2.57;;;1.50;;
8986;SDS011;4529;51.360;12.474;2023-12-20T15:23:07;1.67;;;1.37;;
8986;SDS011;4529;51.360;12.474;2023-12-20T15:28:10;1.23;;;1.10;;
8986;SDS011;4529;51.360;12.474;2023-12-20T15:33:13;1.80;;;1.60;;
8986;SDS011;4529;51.360;12.474;2023-12-20T15:38:17;2.30;;;1.30;;
8986;SDS011;4529;51.360;12.474;2023-12-20T15:43:21;2.77;;;1.47;;
8986;SDS011;4529;51.360;12.474;2023-12-20T15:48:25;1.80;;;1.50;;
8986;SDS011;4529;51.360;12.474;2023-12-20T15:53:29;2.47;;;1.57;;
8986;SDS011;4529;51.360;12.474;2023-12-20T15:58:33;2.10;;;1.30;;
8986;SDS011;4529;51.360;12.474;2023-12-20T16:03:36;1.60;;;1.37;;
8986;SDS011;4529;51.360;12.474;2023-12-20T16:08:40;1.80;;;1.60;;
8986;SDS011;4529;51.360;12.474;2023-12-20T16:13:44;2.27;;;1.50;;
8986;SDS011;4529;51.360;12.474;2023-12-20T16:18:49;2.57;;;1.50;;
8986;SDS011;4529;51.360;12.474;2023-12-20T16:23:52;1.90;;;1.20;;
8986;SDS011;4529;51.360;12.474;2023-12-20T16:28:56;1.57;;;1.40;;
8986;SDS011;4529;51.360;12.474;2023-12-20T16:34:01;2.50;;;1.50;;
8986;SDS011;4529;51.360;12.474;2023-12-20T16:39:05;2.90;;;1.70;;
8986;SDS011;4529;51.360;12.474;2023-12-20T16:44:08;1.70;;;1.60;;
8986;SDS011;4529;51.360;12.474;2023-12-20T16:49:12;5.37;;;2.93;;
8986;SDS011;4529;51.360;12.474;2023-12-20T16:54:15;2.57;;;2.37;;
8986;SDS011;4529;51.360;12.474;2023-12-20T16:59:19;4.13;;;2.10;;
8986;SDS011;4529;51.360;12.474;2023-12-20T17:04:23;2.57;;;2.30;;
8986;SDS011;4529;51.360;12.474;2023-12-20T17:09:27;2.03;;;1.70;;
8986;SDS011;4529;51.360;12.474;2023-12-20T17:14:32;1.90;;;1.80;;
8986;SDS011;4529;51.360;12.474;2023-12-20T17:19:35;3.27;;;1.80;;
8986;SDS011;4529;51.360;12.474;2023-12-20T17:24:38;1.93;;;1.60;;
8986;SDS011;4529;51.360;12.474;2023-12-20T17:29:42;2.80;;;1.87;;
8986;SDS011;4529;51.360;12.474;2023-12-20T17:34:45;1.50;;;1.40;;
8986;SDS011;4529;51.360;12.474;2023-12-20T17:39:49;4.20;;;2.50;;
8986;SDS011;4529;51.360;12.474;2023-12-20T17:44:53;1.27;;;1.17;;
8986;SDS011;4529;51.360;12.474;2023-12-20T17:49:56;1.40;;;1.30;;
8986;SDS011;4529;51.360;12.474;2023-12-20T17:55:00;1.27;;;1.03;;
8986;SDS011;4529;51.360;12.474;2023-12-20T18:00:17;1.50;;;0.90;;
8986;SDS011;4529;51.360;12.474;2023-12-20T18:05:22;1.10;;;1.10;;
8986;SDS011;4529;51.360;12.474;2023-12-20T18:10:26;1.27;;;1.17;;
8986;SDS011;4529;51.360;12.474;2023-12-20T18:15:30;0.90;;;0.90;;
8986;SDS011;4529;51.360;12.474;2023-12-20T18:20:34;1.20;;;1.20;;
8986;SDS011;4529;51.360;12.474;2023-12-20T18:25:38;1.30;;;1.30;;
8986;SDS011;4529;51.360;12.474;2023-12-20T18:30:42;3.07;;;2.33;;
8986;SDS011;4529;51.360;12.474;2023-12-20T18:35:46;3.10;;;2.50;;
8986;SDS011;4529;51.360;12.474;2023-12-20T18:40:49;4.80;;;3.63;;
8986;SDS011;4529;51.360;12.474;2023-12-20T18:45:53;3.63;;;2.90;;
8986;SDS011;4529;51.360;12.474;2023-12-20T18:50:57;6.83;;;4.07;;
8986;SDS011;4529;51.360;12.474;2023-12-20T18:56:01;4.33;;;3.10;;
8986;SDS011;4529;51.360;12.474;2023-12-20T19:01:05;2.87;;;2.40;;
8986;SDS011;4529;51.360;12.474;2023-12-20T19:06:09;4.67;;;2.70;;
8986;SDS011;4529;51.360;12.474;2023-12-20T19:11:13;5.97;;;2.70;;
8986;SDS011;4529;51.360;12.474;2023-12-20T19:16:17;6.07;;;3.80;;
8986;SDS011;4529;51.360;12.474;2023-12-20T19:21:20;6.10;;;3.00;;
8986;SDS011;4529;51.360;12.474;2023-12-20T19:26:24;4.27;;;2.60;;
8986;SDS011;4529;51.360;12.474;2023-12-20T19:31:27;3.50;;;2.80;;
8986;SDS011;4529;51.360;12.474;2023-12-20T19:36:31;4.17;;;2.73;;
8986;SDS011;4529;51.360;12.474;2023-12-20T19:41:35;2.97;;;2.30;;
8986;SDS011;4529;51.360;12.474;2023-12-20T19:46:39;2.60;;;2.40;;
8986;SDS011;4529;51.360;12.474;2023-12-20T19:51:44;4.40;;;2.10;;
8986;SDS011;4529;51.360;12.474;2023-12-20T19:56:47;4.17;;;2.30;;
8986;SDS011;4529;51.360;12.474;2023-12-20T20:01:51;2.70;;;2.07;;
8986;SDS011;4529;51.360;12.474;2023-12-20T20:06:55;2.73;;;2.00;;
8986;SDS011;4529;51.360;12.474;2023-12-20T20:12:00;3.13;;;2.03;;
8986;SDS011;4529;51.360;12.474;2023-12-20T20:17:03;2.87;;;1.80;;
8986;SDS011;4529;51.360;12.474;2023-12-20T20:22:07;3.47;;;2.10;;
8986;SDS011;4529;51.360;12.474;2023-12-20T20:27:12;3.87;;;2.40;;
8986;SDS011;4529;51.360;12.474;2023-12-20T20:32:16;1.80;;;1.70;;
8986;SDS011;4529;51.360;12.474;2023-12-20T20:37:20;3.50;;;1.93;;
8986;SDS011;4529;51.360;12.474;2023-12-20T20:42:23;3.87;;;2.40;;
8986;SDS011;4529;51.360;12.474;2023-12-20T20:47:27;2.43;;;1.90;;
8986;SDS011;4529;51.360;12.474;2023-12-20T20:52:30;3.10;;;2.00;;
8986;SDS011;4529;51.360;12.474;2023-12-20T20:57:34;1.93;;;1.50;;
8986;SDS011;4529;51.360;12.474;2023-12-20T21:02:37;1.47;;;1.37;;
8986;SDS011;4529;51.360;12.474;2023-12-20T21:07:41;3.93;;;2.23;;
8986;SDS011;4529;51.360;12.474;2023-12-20T21:12:45;2.27;;;1.80;;
8986;SDS011;4529;51.360;12.474;2023-12-20T21:17:50;1.77;;;1.67;;
8986;SDS011;4529;51.360;12.474;2023-12-20T21:22:54;1.70;;;1.60;;
8986;SDS011;4529;51.360;12.474;2023-12-20T21:27:58;2.00;;;1.53;;
8986;SDS011;4529;51.360;12.474;2023-12-20T21:33:01;1.97;;;1.77;;
8986;SDS011;4529;51.360;12.474;2023-12-20T21:38:04;3.07;;;1.80;;
8986;SDS011;4529;51.360;12.474;2023-12-20T21:43:08;2.00;;;1.80;;
8986;SDS011;4529;51.360;12.474;2023-12-20T21:48:12;2.30;;;1.53;;
8986;SDS011;4529;51.360;12.474;2023-12-20T21:53:16;2.33;;;1.70;;
8986;SDS011;4529;51.360;12.474;2023-12-20T21:58:20;1.50;;;1.40;;
8986;SDS011;4529;51.360;12.474;2023-12-20T22:03:25;1.50;;;1.40;;
8986;SDS011;4529;51.360;12.474;2023-12-20T22:08:29;1.13;;;1.13;;
8986;SDS011;4529;51.360;12.474;2023-12-20T22:13:33;3.43;;;1.30;;
8986;SDS011;4529;51.360;12.474;2023-12-20T22:18:36;1.13;;;1.10;;
8986;SDS011;4529;51.360;12.474;2023-12-20T22:23:40;0.90;;;0.90;;
8986;SDS011;4529;51.360;12.474;2023-12-20T22:28:44;1.23;;;1.13;;
8986;SDS011;4529;51.360;12.474;2023-12-20T22:33:48;1.23;;;1.10;;
8986;SDS011;4529;51.360;12.474;2023-12-20T22:38:51;1.70;;;1.07;;
8986;SDS011;4529;51.360;12.474;2023-12-20T22:43:55;2.10;;;1.10;;
8986;SDS011;4529;51.360;12.474;2023-12-20T22:48:59;1.03;;;1.03;;
8986;SDS011;4529;51.360;12.474;2023-12-20T22:54:03;0.90;;;0.90;;
8986;SDS011;4529;51.360;12.474;2023-12-20T22:59:07;1.23;;;1.13;;
8986;SDS011;4529;51.360;12.474;2023-12-20T23:04:10;1.67;;;0.87;;
8986;SDS011;4529;51.360;12.474;2023-12-20T23:09:14;0.80;;;0.80;;
8986;SDS011;4529;51.360;12.474;2023-12-20T23:14:17;1.13;;;1.00;;
8986;SDS011;4529;51.360;12.474;2023-12-20T23:19:21;1.67;;;0.90;;
8986;SDS011;4529;51.360;12.474;2023-12-20T23:24:25;1.87;;;0.93;;
8986;SDS011;4529;51.360;12.474;2023-12-20T23:29:29;2.20;;;1.20;;
8986;SDS011;4529;51.360;12.474;2023-12-20T23:34:34;0.90;;;0.90;;
8986;SDS011;4529;51.360;12.474;2023-12-20T23:39:37;1.13;;;1.00;;
8986;SDS011;4529;51.360;12.474;2023-12-20T23:44:40;1.17;;;0.90;;
8986;SDS011;4529;51.360;12.474;2023-12-20T23:49:44;0.70;;;0.70;;
8986;SDS011;4529;51.360;12.474;2023-12-20T23:54:47;0.67;;;0.67;;
8986;SDS011;4529;51.360;12.474;2023-12-20T23:59:51;0.80;;;0.80;;
